KLM791 EHAM-SBGR
Flight info
| Callsign | KLM791 |
|---|---|
| Flight time | N/A |
| Altitude | 23000 |
| Route | WOODY N872 CIV/N0489F310 N872 MEDIL UN872 ERIGA UN741 AZFIC DCT GATMO DCT LOTEE DCT PINEK/N0491F330 DCT NELSO/N0492F340 N741 EDUMO UN741 NANIK/N0495F360 UN741 DADAP/N0487F380 UN741 GEVMI UZ3 CNF UZ21 VUNOX |
| Aircraft | B77W/H-SDE1E2E3FGHIJ2J3J4J5M1RWXY/LB1D1 |
Departure
| Time | 2026-05-07 08:07 |
|---|---|
| Airport | Amsterdam Airport Schiphol (EHAM) |
Arrival
| Time | N/A |
|---|---|
| Airport | São Paulo/Guarulhos–Governor André Franco Montoro International Airport (SBGR) |
| Time | Latitude | Longitude | Altitude | Speed | Heading |
|---|---|---|---|---|---|
| 2026-05-07 07:56 | 52.31369 | 4.76421 | 4 ft | 0 kts | 342° |
| 2026-05-07 07:59 | 52.31376 | 4.76417 | 4 ft | 4 kts | 342° |
| 2026-05-07 07:59 | 52.31426 | 4.76392 | 4 ft | 9 kts | 342° |
| 2026-05-07 07:59 | 52.31485 | 4.76356 | 4 ft | 10 kts | 331° |
| 2026-05-07 07:59 | 52.31536 | 4.76233 | 4 ft | 15 kts | 278° |
| 2026-05-07 08:00 | 52.31533 | 4.76062 | 4 ft | 15 kts | 267° |
| 2026-05-07 08:00 | 52.31527 | 4.75891 | 4 ft | 15 kts | 266° |
| 2026-05-07 08:00 | 52.31521 | 4.75720 | 4 ft | 15 kts | 266° |
| 2026-05-07 08:00 | 52.31515 | 4.75550 | 4 ft | 15 kts | 266° |
| 2026-05-07 08:01 | 52.31509 | 4.75379 | 4 ft | 15 kts | 266° |
| 2026-05-07 08:01 | 52.31503 | 4.75208 | 3 ft | 15 kts | 266° |
| 2026-05-07 08:01 | 52.31497 | 4.75028 | 4 ft | 16 kts | 267° |
| 2026-05-07 08:01 | 52.31491 | 4.74845 | 4 ft | 16 kts | 267° |
| 2026-05-07 08:02 | 52.31485 | 4.74662 | 4 ft | 16 kts | 267° |
| 2026-05-07 08:02 | 52.31479 | 4.74479 | 4 ft | 16 kts | 267° |
| 2026-05-07 08:02 | 52.31474 | 4.74324 | 4 ft | 12 kts | 267° |
| 2026-05-07 08:02 | 52.31448 | 4.74194 | 4 ft | 12 kts | 231° |
| 2026-05-07 08:03 | 52.31373 | 4.74138 | 4 ft | 12 kts | 186° |
| 2026-05-07 08:03 | 52.31285 | 4.74128 | 4 ft | 13 kts | 183° |
| 2026-05-07 08:03 | 52.31191 | 4.74119 | 4 ft | 14 kts | 183° |
| 2026-05-07 08:03 | 52.31090 | 4.74110 | 4 ft | 17 kts | 183° |
| 2026-05-07 08:04 | 52.30960 | 4.74098 | 4 ft | 19 kts | 183° |
| 2026-05-07 08:04 | 52.30829 | 4.74087 | 4 ft | 19 kts | 183° |
| 2026-05-07 08:04 | 52.30698 | 4.74075 | 4 ft | 19 kts | 183° |
| 2026-05-07 08:04 | 52.30569 | 4.74064 | 4 ft | 17 kts | 183° |
| 2026-05-07 08:05 | 52.30462 | 4.74055 | 4 ft | 14 kts | 183° |
| 2026-05-07 08:05 | 52.30369 | 4.74033 | 4 ft | 14 kts | 196° |
| 2026-05-07 08:05 | 52.30281 | 4.73976 | 4 ft | 13 kts | 207° |
| 2026-05-07 08:05 | 52.30215 | 4.73905 | 3 ft | 11 kts | 219° |
| 2026-05-07 08:06 | 52.30191 | 4.73805 | 3 ft | 8 kts | 275° |
| 2026-05-07 08:06 | 52.30209 | 4.73754 | 2 ft | 5 kts | 322° |
| 2026-05-07 08:06 | 52.30244 | 4.73741 | 1 ft | 5 kts | 5° |
| 2026-05-07 08:06 | 52.30363 | 4.73752 | 1 ft | 42 kts | 3° |
| 2026-05-07 08:07 | 52.30927 | 4.73805 | 3 ft | 119 kts | 3° |
| 2026-05-07 08:07 | 52.31962 | 4.73898 | 4 ft | 179 kts | 3° |
| 2026-05-07 08:07 | 52.33309 | 4.74025 | 427 ft | 191 kts | 5° |
| 2026-05-07 08:07 | 52.34620 | 4.74299 | 1133 ft | 189 kts | 21° |
| 2026-05-07 08:08 | 52.35803 | 4.75238 | 1711 ft | 193 kts | 27° |
| 2026-05-07 08:08 | 52.36962 | 4.76368 | 2217 ft | 198 kts | 44° |
| 2026-05-07 08:08 | 52.37567 | 4.78443 | 2447 ft | 215 kts | 85° |
| 2026-05-07 08:08 | 52.37308 | 4.80888 | 2812 ft | 225 kts | 104° |
| 2026-05-07 08:09 | 52.36741 | 4.83357 | 3118 ft | 243 kts | 122° |
| 2026-05-07 08:09 | 52.35405 | 4.85089 | 3544 ft | 254 kts | 162° |
| 2026-05-07 08:09 | 52.33622 | 4.85359 | 3971 ft | 264 kts | 183° |
| 2026-05-07 08:09 | 52.31768 | 4.85134 | 4615 ft | 269 kts | 185° |
| 2026-05-07 08:10 | 52.29884 | 4.84933 | 5242 ft | 273 kts | 184° |
| 2026-05-07 08:10 | 52.28004 | 4.84334 | 5841 ft | 278 kts | 197° |
| 2026-05-07 08:10 | 52.26170 | 4.83311 | 6580 ft | 278 kts | 200° |
| 2026-05-07 08:10 | 52.24352 | 4.82216 | 7285 ft | 279 kts | 200° |
| 2026-05-07 08:11 | 52.22520 | 4.81115 | 7970 ft | 280 kts | 200° |
| 2026-05-07 08:11 | 52.20703 | 4.80044 | 8617 ft | 283 kts | 200° |
| 2026-05-07 08:11 | 52.18847 | 4.78970 | 9258 ft | 285 kts | 200° |
| 2026-05-07 08:11 | 52.16962 | 4.77896 | 9905 ft | 288 kts | 200° |
| 2026-05-07 08:12 | 52.15056 | 4.76823 | 10442 ft | 294 kts | 200° |
| 2026-05-07 08:12 | 52.13066 | 4.75710 | 10600 ft | 314 kts | 200° |
| 2026-05-07 08:12 | 52.10919 | 4.74516 | 10783 ft | 335 kts | 199° |
| 2026-05-07 08:12 | 52.08650 | 4.73264 | 10949 ft | 356 kts | 199° |
| 2026-05-07 08:13 | 52.06250 | 4.71947 | 11360 ft | 369 kts | 199° |
| 2026-05-07 08:13 | 52.03785 | 4.70598 | 11956 ft | 377 kts | 200° |
| 2026-05-07 08:13 | 52.01277 | 4.69227 | 12734 ft | 380 kts | 199° |
| 2026-05-07 08:13 | 51.98792 | 4.67871 | 13577 ft | 383 kts | 199° |
| 2026-05-07 08:14 | 51.96249 | 4.66489 | 14329 ft | 387 kts | 199° |
| 2026-05-07 08:14 | 51.93687 | 4.65097 | 15016 ft | 391 kts | 199° |
| 2026-05-07 08:14 | 51.91143 | 4.63716 | 15694 ft | 394 kts | 199° |
| 2026-05-07 08:14 | 51.88526 | 4.62297 | 16377 ft | 398 kts | 199° |
| 2026-05-07 08:15 | 51.85884 | 4.60867 | 17064 ft | 403 kts | 199° |
| 2026-05-07 08:15 | 51.83216 | 4.59422 | 17759 ft | 406 kts | 199° |
| 2026-05-07 08:15 | 51.80515 | 4.57959 | 18434 ft | 411 kts | 199° |
| 2026-05-07 08:15 | 51.77797 | 4.56493 | 19019 ft | 414 kts | 199° |
| 2026-05-07 08:16 | 51.75042 | 4.55010 | 19622 ft | 418 kts | 199° |
| 2026-05-07 08:16 | 51.72307 | 4.53538 | 20216 ft | 421 kts | 199° |
| 2026-05-07 08:16 | 51.69518 | 4.52036 | 20814 ft | 424 kts | 199° |
| 2026-05-07 08:16 | 51.66700 | 4.50523 | 21366 ft | 428 kts | 199° |
| 2026-05-07 08:17 | 51.63860 | 4.49001 | 21936 ft | 431 kts | 199° |
| 2026-05-07 08:17 | 51.61003 | 4.47472 | 22497 ft | 435 kts | 199° |
| 2026-05-07 08:17 | 51.58112 | 4.45926 | 23055 ft | 438 kts | 199° |
| 2026-05-07 08:17 | 51.55241 | 4.44393 | 23576 ft | 441 kts | 199° |
| 2026-05-07 08:18 | 51.52317 | 4.42831 | 24036 ft | 445 kts | 199° |
| 2026-05-07 08:18 | 51.49376 | 4.41263 | 24493 ft | 447 kts | 199° |
| 2026-05-07 08:18 | 51.46380 | 4.39669 | 24950 ft | 450 kts | 199° |
| 2026-05-07 08:18 | 51.43431 | 4.38103 | 25415 ft | 452 kts | 199° |
| 2026-05-07 08:19 | 51.40436 | 4.36466 | 25830 ft | 454 kts | 202° |
| 2026-05-07 08:19 | 51.37540 | 4.34428 | 26231 ft | 456 kts | 207° |
| 2026-05-07 08:19 | 51.34678 | 4.32200 | 26647 ft | 459 kts | 207° |
| 2026-05-07 08:19 | 51.31782 | 4.30000 | 27049 ft | 462 kts | 206° |
| 2026-05-07 08:20 | 51.28861 | 4.27798 | 27478 ft | 464 kts | 206° |
| 2026-05-07 08:20 | 51.25939 | 4.25577 | 27868 ft | 467 kts | 206° |
| 2026-05-07 08:20 | 51.22997 | 4.23335 | 28242 ft | 469 kts | 206° |
| 2026-05-07 08:20 | 51.20042 | 4.21087 | 28599 ft | 471 kts | 206° |
| 2026-05-07 08:21 | 51.17213 | 4.18948 | 28919 ft | 474 kts | 206° |
| 2026-05-07 08:21 | 51.14264 | 4.17026 | 29212 ft | 477 kts | 200° |
| 2026-05-07 08:22 | 51.11114 | 4.15327 | 29528 ft | 480 kts | 199° |
| 2026-05-07 08:22 | 51.07938 | 4.13647 | 29819 ft | 482 kts | 199° |
| 2026-05-07 08:22 | 51.04755 | 4.11953 | 30155 ft | 482 kts | 200° |
| 2026-05-07 08:22 | 51.01579 | 4.10243 | 30503 ft | 481 kts | 200° |
| 2026-05-07 08:23 | 50.98424 | 4.08529 | 30890 ft | 479 kts | 200° |
| 2026-05-07 08:23 | 50.95271 | 4.06808 | 31236 ft | 478 kts | 200° |
| 2026-05-07 08:23 | 50.92128 | 4.05095 | 31540 ft | 478 kts | 200° |
| 2026-05-07 08:23 | 50.89022 | 4.03409 | 31839 ft | 477 kts | 200° |
| 2026-05-07 08:24 | 50.85906 | 4.01590 | 31995 ft | 478 kts | 202° |
| 2026-05-07 08:24 | 50.79731 | 3.97609 | 32041 ft | 478 kts | 203° |
| 2026-05-07 08:25 | 50.73584 | 3.93624 | 32044 ft | 476 kts | 203° |
| 2026-05-07 08:25 | 50.67442 | 3.89691 | 32055 ft | 477 kts | 203° |
| 2026-05-07 08:26 | 50.58216 | 3.83820 | 32050 ft | 477 kts | 203° |
| 2026-05-07 08:26 | 50.52094 | 3.79754 | 32049 ft | 477 kts | 205° |
| 2026-05-07 08:27 | 50.46065 | 3.75583 | 32047 ft | 477 kts | 205° |
| 2026-05-07 08:27 | 50.39978 | 3.71418 | 32050 ft | 477 kts | 204° |
| 2026-05-07 08:28 | 50.33893 | 3.67293 | 32047 ft | 477 kts | 204° |
| 2026-05-07 08:28 | 50.27804 | 3.63175 | 32054 ft | 477 kts | 204° |
| 2026-05-07 08:29 | 50.21708 | 3.59058 | 32050 ft | 477 kts | 204° |
| 2026-05-07 08:29 | 50.15612 | 3.54959 | 32049 ft | 477 kts | 204° |
| 2026-05-07 08:30 | 50.09509 | 3.50877 | 32047 ft | 477 kts | 204° |
| 2026-05-07 08:30 | 50.03614 | 3.46942 | 32052 ft | 477 kts | 204° |
| 2026-05-07 08:31 | 49.97498 | 3.42869 | 32052 ft | 477 kts | 204° |
| 2026-05-07 08:31 | 49.91376 | 3.38802 | 32053 ft | 478 kts | 204° |
| 2026-05-07 08:32 | 49.85294 | 3.34771 | 32046 ft | 478 kts | 204° |
| 2026-05-07 08:32 | 49.79179 | 3.30731 | 32050 ft | 478 kts | 204° |
| 2026-05-07 08:33 | 49.73062 | 3.26686 | 32049 ft | 478 kts | 204° |
| 2026-05-07 08:33 | 49.67973 | 3.23324 | 32048 ft | 478 kts | 204° |
| 2026-05-07 08:34 | 49.61865 | 3.19300 | 32052 ft | 478 kts | 204° |
| 2026-05-07 08:34 | 49.55746 | 3.15280 | 32052 ft | 478 kts | 204° |
| 2026-05-07 08:35 | 49.49895 | 3.10524 | 32045 ft | 475 kts | 220° |
| 2026-05-07 08:35 | 49.45563 | 3.02940 | 32047 ft | 473 kts | 240° |
| 2026-05-07 08:36 | 49.42408 | 2.94138 | 32050 ft | 474 kts | 242° |
| 2026-05-07 08:36 | 49.39189 | 2.85317 | 32051 ft | 473 kts | 241° |
| 2026-05-07 08:37 | 49.35915 | 2.76566 | 32049 ft | 473 kts | 240° |
| 2026-05-07 08:37 | 49.32669 | 2.67763 | 32053 ft | 472 kts | 242° |
| 2026-05-07 08:38 | 49.29776 | 2.59473 | 32056 ft | 472 kts | 243° |
| 2026-05-07 08:38 | 49.27224 | 2.52162 | 32060 ft | 472 kts | 242° |
| 2026-05-07 08:39 | 49.24101 | 2.43320 | 32059 ft | 472 kts | 242° |
| 2026-05-07 08:39 | 49.20984 | 2.34545 | 32053 ft | 472 kts | 242° |
| 2026-05-07 08:40 | 49.17806 | 2.25744 | 32046 ft | 472 kts | 241° |
| 2026-05-07 08:40 | 49.14576 | 2.17036 | 32051 ft | 471 kts | 241° |
| 2026-05-07 08:41 | 49.11347 | 2.08320 | 32050 ft | 471 kts | 241° |
| 2026-05-07 08:41 | 49.08306 | 1.99488 | 32051 ft | 470 kts | 246° |
| 2026-05-07 08:42 | 49.05604 | 1.90404 | 32052 ft | 470 kts | 246° |
| 2026-05-07 08:42 | 49.02899 | 1.81332 | 32049 ft | 470 kts | 246° |
| 2026-05-07 08:43 | 49.00193 | 1.72348 | 32050 ft | 470 kts | 246° |
| 2026-05-07 08:43 | 48.97454 | 1.63318 | 32055 ft | 470 kts | 246° |
| 2026-05-07 08:44 | 48.94703 | 1.54286 | 32055 ft | 469 kts | 245° |
| 2026-05-07 08:44 | 48.91949 | 1.45275 | 32062 ft | 469 kts | 245° |
| 2026-05-07 08:45 | 48.89188 | 1.36269 | 32059 ft | 469 kts | 245° |
| 2026-05-07 08:45 | 48.86439 | 1.27339 | 32062 ft | 469 kts | 245° |
| 2026-05-07 08:46 | 48.83668 | 1.18366 | 32076 ft | 469 kts | 245° |
| 2026-05-07 08:46 | 48.80884 | 1.09382 | 32077 ft | 469 kts | 245° |
| 2026-05-07 08:47 | 48.78098 | 1.00426 | 32057 ft | 469 kts | 245° |
| 2026-05-07 08:47 | 48.75305 | 0.91476 | 32082 ft | 469 kts | 245° |
| 2026-05-07 08:48 | 48.72134 | 0.82837 | 32081 ft | 470 kts | 239° |
| 2026-05-07 08:48 | 48.68686 | 0.74437 | 32083 ft | 470 kts | 239° |
| 2026-05-07 08:49 | 48.65245 | 0.66032 | 32076 ft | 470 kts | 239° |
| 2026-05-07 08:49 | 48.61837 | 0.57671 | 32075 ft | 470 kts | 239° |
| 2026-05-07 08:50 | 48.58410 | 0.49272 | 32081 ft | 470 kts | 239° |
| 2026-05-07 08:50 | 48.54977 | 0.40880 | 32071 ft | 470 kts | 239° |
| 2026-05-07 08:51 | 48.51534 | 0.32497 | 32058 ft | 470 kts | 239° |
| 2026-05-07 08:51 | 48.48085 | 0.24124 | 32071 ft | 470 kts | 238° |
| 2026-05-07 08:52 | 48.44630 | 0.15762 | 32070 ft | 470 kts | 238° |
| 2026-05-07 08:52 | 48.41175 | 0.07424 | 32070 ft | 470 kts | 238° |
| 2026-05-07 08:53 | 48.37700 | -0.00936 | 32071 ft | 470 kts | 238° |
| 2026-05-07 08:53 | 48.34038 | -0.08989 | 32075 ft | 470 kts | 233° |
| 2026-05-07 08:54 | 48.30079 | -0.16832 | 32064 ft | 470 kts | 233° |
| 2026-05-07 08:54 | 48.26148 | -0.24689 | 32069 ft | 470 kts | 233° |
| 2026-05-07 08:55 | 48.22189 | -0.32521 | 32063 ft | 470 kts | 233° |
| 2026-05-07 08:55 | 48.18227 | -0.40251 | 32058 ft | 470 kts | 233° |
| 2026-05-07 08:56 | 48.14246 | -0.48005 | 32057 ft | 469 kts | 233° |
| 2026-05-07 08:56 | 48.10265 | -0.55754 | 32051 ft | 469 kts | 233° |
| 2026-05-07 08:57 | 48.06272 | -0.63509 | 32049 ft | 470 kts | 233° |
| 2026-05-07 08:57 | 48.02281 | -0.71236 | 32046 ft | 470 kts | 233° |
| 2026-05-07 08:58 | 47.98284 | -0.78955 | 32046 ft | 470 kts | 232° |
| 2026-05-07 08:58 | 47.94281 | -0.86664 | 32051 ft | 470 kts | 232° |
| 2026-05-07 08:59 | 47.90270 | -0.94364 | 32054 ft | 469 kts | 232° |
| 2026-05-07 08:59 | 47.86289 | -1.01986 | 32050 ft | 469 kts | 232° |
| 2026-05-07 09:00 | 47.82272 | -1.09655 | 32049 ft | 470 kts | 232° |
| 2026-05-07 09:00 | 47.78240 | -1.17331 | 32046 ft | 470 kts | 232° |
| 2026-05-07 09:01 | 47.74210 | -1.24983 | 32044 ft | 470 kts | 232° |
| 2026-05-07 09:01 | 47.70174 | -1.32624 | 32042 ft | 470 kts | 232° |
| 2026-05-07 09:02 | 47.66153 | -1.40217 | 32039 ft | 470 kts | 232° |
| 2026-05-07 09:02 | 47.62113 | -1.47828 | 32031 ft | 470 kts | 232° |
| 2026-05-07 09:03 | 47.57933 | -1.55310 | 32034 ft | 470 kts | 228° |
| 2026-05-07 09:03 | 47.53528 | -1.62504 | 32034 ft | 470 kts | 228° |
| 2026-05-07 09:04 | 47.49130 | -1.69669 | 32022 ft | 470 kts | 228° |
| 2026-05-07 09:04 | 47.44748 | -1.76837 | 32022 ft | 470 kts | 228° |
| 2026-05-07 09:05 | 47.40388 | -1.83965 | 32029 ft | 470 kts | 228° |
| 2026-05-07 09:05 | 47.35904 | -1.90981 | 32022 ft | 470 kts | 222° |
| 2026-05-07 09:06 | 47.30710 | -1.96795 | 32022 ft | 470 kts | 212° |
| 2026-05-07 09:06 | 47.25084 | -2.01745 | 32026 ft | 470 kts | 211° |
| 2026-05-07 09:07 | 47.19460 | -2.06698 | 32020 ft | 470 kts | 211° |
| 2026-05-07 09:07 | 47.13864 | -2.11666 | 32020 ft | 469 kts | 211° |
| 2026-05-07 09:08 | 47.08280 | -2.16628 | 32022 ft | 469 kts | 211° |
| 2026-05-07 09:08 | 47.02733 | -2.21546 | 32022 ft | 469 kts | 211° |
| 2026-05-07 09:09 | 46.97149 | -2.26482 | 32020 ft | 468 kts | 211° |
| 2026-05-07 09:09 | 46.91576 | -2.31396 | 32022 ft | 468 kts | 211° |
| 2026-05-07 09:10 | 46.86420 | -2.37174 | 32020 ft | 467 kts | 226° |
| 2026-05-07 09:10 | 46.82525 | -2.44746 | 32026 ft | 468 kts | 240° |
| 2026-05-07 09:11 | 46.79330 | -2.53039 | 32024 ft | 468 kts | 240° |
| 2026-05-07 09:11 | 46.76149 | -2.61250 | 32024 ft | 468 kts | 239° |
| 2026-05-07 09:12 | 46.72907 | -2.69469 | 32021 ft | 467 kts | 239° |
| 2026-05-07 09:12 | 46.69646 | -2.77665 | 32024 ft | 467 kts | 239° |
| 2026-05-07 09:13 | 46.66379 | -2.85856 | 32022 ft | 467 kts | 239° |
| 2026-05-07 09:13 | 46.63112 | -2.94028 | 32023 ft | 467 kts | 239° |
| 2026-05-07 09:14 | 46.59840 | -3.02189 | 32025 ft | 467 kts | 239° |
| 2026-05-07 09:14 | 46.56048 | -3.09755 | 32022 ft | 466 kts | 227° |
| 2026-05-07 09:15 | 46.51334 | -3.16193 | 32026 ft | 465 kts | 219° |
| 2026-05-07 09:15 | 46.46271 | -3.22054 | 32026 ft | 465 kts | 218° |
| 2026-05-07 09:16 | 46.41204 | -3.27920 | 32023 ft | 465 kts | 219° |
| 2026-05-07 09:16 | 46.36162 | -3.33797 | 32023 ft | 465 kts | 219° |
| 2026-05-07 09:17 | 46.31127 | -3.39670 | 32022 ft | 465 kts | 219° |
| 2026-05-07 09:17 | 46.26119 | -3.45500 | 32029 ft | 465 kts | 219° |
| 2026-05-07 09:18 | 46.21078 | -3.51351 | 32022 ft | 464 kts | 219° |
| 2026-05-07 09:18 | 46.16035 | -3.57189 | 32023 ft | 464 kts | 219° |
| 2026-05-07 09:19 | 46.10990 | -3.63018 | 32022 ft | 464 kts | 218° |
| 2026-05-07 09:19 | 46.05945 | -3.68831 | 32025 ft | 464 kts | 218° |
| 2026-05-07 09:20 | 46.01250 | -3.75201 | 32023 ft | 464 kts | 228° |
| 2026-05-07 09:20 | 45.96984 | -3.82106 | 32028 ft | 465 kts | 227° |
| 2026-05-07 09:21 | 45.92675 | -3.89028 | 32028 ft | 465 kts | 227° |
| 2026-05-07 09:21 | 45.88333 | -3.95944 | 32019 ft | 464 kts | 227° |
| 2026-05-07 09:22 | 45.84024 | -4.02773 | 32019 ft | 465 kts | 227° |
| 2026-05-07 09:22 | 45.79678 | -4.09643 | 32020 ft | 465 kts | 227° |
| 2026-05-07 09:23 | 45.75330 | -4.16500 | 32016 ft | 465 kts | 227° |
| 2026-05-07 09:23 | 45.71705 | -4.22204 | 32019 ft | 465 kts | 227° |
| 2026-05-07 09:24 | 45.67348 | -4.29044 | 32020 ft | 465 kts | 226° |
| 2026-05-07 09:24 | 45.62979 | -4.35887 | 32011 ft | 465 kts | 226° |
| 2026-05-07 09:25 | 45.58615 | -4.42705 | 32015 ft | 465 kts | 226° |
| 2026-05-07 09:25 | 45.54245 | -4.49514 | 32012 ft | 465 kts | 226° |
| 2026-05-07 09:26 | 45.49859 | -4.56332 | 32011 ft | 466 kts | 226° |
| 2026-05-07 09:26 | 45.45478 | -4.63125 | 32009 ft | 466 kts | 226° |
| 2026-05-07 09:27 | 45.41080 | -4.69928 | 32007 ft | 466 kts | 226° |
| 2026-05-07 09:28 | 45.34513 | -4.80055 | 32005 ft | 466 kts | 226° |
| 2026-05-07 09:28 | 45.30115 | -4.86816 | 32003 ft | 466 kts | 226° |
| 2026-05-07 09:29 | 45.25706 | -4.93577 | 32005 ft | 466 kts | 226° |
| 2026-05-07 09:29 | 45.21291 | -5.00331 | 32001 ft | 467 kts | 226° |
| 2026-05-07 09:30 | 45.16891 | -5.07046 | 31999 ft | 467 kts | 226° |
| 2026-05-07 09:30 | 45.12461 | -5.13790 | 31996 ft | 467 kts | 226° |
| 2026-05-07 09:31 | 45.08033 | -5.20514 | 31992 ft | 467 kts | 226° |
| 2026-05-07 09:31 | 45.03595 | -5.27237 | 31990 ft | 467 kts | 226° |
| 2026-05-07 09:32 | 44.99145 | -5.33962 | 31990 ft | 468 kts | 226° |
| 2026-05-07 09:32 | 44.94727 | -5.40622 | 31989 ft | 468 kts | 226° |
| 2026-05-07 09:33 | 44.90275 | -5.47318 | 31986 ft | 467 kts | 226° |
| 2026-05-07 09:33 | 44.85828 | -5.53991 | 31983 ft | 467 kts | 226° |
| 2026-05-07 09:34 | 44.81365 | -5.60671 | 31984 ft | 467 kts | 226° |
| 2026-05-07 09:34 | 44.76903 | -5.67333 | 31980 ft | 467 kts | 226° |
| 2026-05-07 09:35 | 44.72440 | -5.73983 | 31979 ft | 467 kts | 226° |
| 2026-05-07 09:35 | 44.68005 | -5.80576 | 31977 ft | 467 kts | 226° |
| 2026-05-07 09:36 | 44.63194 | -5.86667 | 31969 ft | 465 kts | 216° |
| 2026-05-07 09:36 | 44.57957 | -5.92028 | 31968 ft | 466 kts | 216° |
| 2026-05-07 09:37 | 44.52725 | -5.97398 | 31971 ft | 466 kts | 216° |
| 2026-05-07 09:37 | 44.47503 | -6.02786 | 31962 ft | 466 kts | 216° |
| 2026-05-07 09:38 | 44.42288 | -6.08172 | 31965 ft | 466 kts | 216° |
| 2026-05-07 09:38 | 44.37062 | -6.13562 | 31961 ft | 467 kts | 216° |
| 2026-05-07 09:39 | 44.31828 | -6.18947 | 31962 ft | 467 kts | 216° |
| 2026-05-07 09:39 | 44.26597 | -6.24314 | 31955 ft | 467 kts | 216° |
| 2026-05-07 09:40 | 44.21390 | -6.29645 | 31957 ft | 467 kts | 216° |
| 2026-05-07 09:40 | 44.16143 | -6.35004 | 31950 ft | 467 kts | 216° |
| 2026-05-07 09:41 | 44.10893 | -6.40355 | 31951 ft | 468 kts | 216° |
| 2026-05-07 09:41 | 44.05636 | -6.45702 | 31948 ft | 469 kts | 217° |
| 2026-05-07 09:42 | 44.00357 | -6.51057 | 31945 ft | 470 kts | 217° |
| 2026-05-07 09:42 | 43.95068 | -6.56411 | 31947 ft | 471 kts | 217° |
| 2026-05-07 09:43 | 43.89760 | -6.61773 | 31940 ft | 472 kts | 217° |
| 2026-05-07 09:43 | 43.84429 | -6.67145 | 31937 ft | 474 kts | 217° |
| 2026-05-07 09:44 | 43.79114 | -6.72490 | 31937 ft | 476 kts | 217° |
| 2026-05-07 09:44 | 43.73746 | -6.77875 | 31938 ft | 477 kts | 217° |
| 2026-05-07 09:45 | 43.68365 | -6.83261 | 31935 ft | 477 kts | 217° |
| 2026-05-07 09:45 | 43.62980 | -6.88639 | 31930 ft | 478 kts | 217° |
| 2026-05-07 09:46 | 43.57580 | -6.94019 | 31924 ft | 479 kts | 217° |
| 2026-05-07 09:46 | 43.52177 | -6.99390 | 31928 ft | 479 kts | 217° |
| 2026-05-07 09:47 | 43.46799 | -7.04725 | 31920 ft | 480 kts | 217° |
| 2026-05-07 09:47 | 43.41373 | -7.10097 | 31921 ft | 481 kts | 217° |
| 2026-05-07 09:48 | 43.35929 | -7.15472 | 31921 ft | 482 kts | 217° |
| 2026-05-07 09:48 | 43.30469 | -7.20851 | 31917 ft | 483 kts | 217° |
| 2026-05-07 09:49 | 43.25007 | -7.26221 | 31919 ft | 484 kts | 217° |
| 2026-05-07 09:49 | 43.19543 | -7.31580 | 31918 ft | 485 kts | 217° |
| 2026-05-07 09:50 | 43.14054 | -7.36951 | 31913 ft | 485 kts | 217° |
| 2026-05-07 09:50 | 43.08553 | -7.42323 | 31910 ft | 486 kts | 217° |
| 2026-05-07 09:51 | 43.03048 | -7.47687 | 31915 ft | 487 kts | 217° |
| 2026-05-07 09:51 | 42.97514 | -7.53066 | 31913 ft | 488 kts | 218° |
| 2026-05-07 09:52 | 42.91972 | -7.58440 | 31915 ft | 489 kts | 218° |
| 2026-05-07 09:52 | 42.86411 | -7.63821 | 31911 ft | 490 kts | 218° |
| 2026-05-07 09:53 | 42.80852 | -7.69189 | 31912 ft | 490 kts | 218° |
| 2026-05-07 09:53 | 42.75278 | -7.74558 | 31916 ft | 491 kts | 218° |
| 2026-05-07 09:54 | 42.69741 | -7.79882 | 31909 ft | 491 kts | 218° |
| 2026-05-07 09:54 | 42.64154 | -7.85238 | 31907 ft | 492 kts | 218° |
| 2026-05-07 09:55 | 42.58550 | -7.90600 | 31892 ft | 493 kts | 218° |
| 2026-05-07 09:55 | 42.52935 | -7.95962 | 31909 ft | 494 kts | 218° |
| 2026-05-07 09:56 | 42.47303 | -8.01327 | 31902 ft | 495 kts | 218° |
| 2026-05-07 09:56 | 42.41674 | -8.06675 | 31898 ft | 494 kts | 218° |
| 2026-05-07 09:57 | 42.36078 | -8.11981 | 31903 ft | 494 kts | 218° |
| 2026-05-07 09:57 | 42.30435 | -8.17321 | 31905 ft | 494 kts | 219° |
| 2026-05-07 09:58 | 42.24796 | -8.22646 | 31908 ft | 495 kts | 219° |
| 2026-05-07 09:58 | 42.19182 | -8.27935 | 31900 ft | 494 kts | 219° |
| 2026-05-07 09:59 | 42.13526 | -8.33251 | 31898 ft | 494 kts | 219° |
| 2026-05-07 09:59 | 42.07885 | -8.38544 | 31896 ft | 494 kts | 219° |
| 2026-05-07 10:00 | 42.02235 | -8.43829 | 31908 ft | 494 kts | 219° |
| 2026-05-07 10:00 | 41.96692 | -8.49260 | 31911 ft | 492 kts | 222° |
| 2026-05-07 10:01 | 41.91307 | -8.54950 | 32017 ft | 494 kts | 223° |
| 2026-05-07 10:01 | 41.88652 | -8.57766 | 32346 ft | 493 kts | 223° |
| 2026-05-07 10:01 | 41.85930 | -8.60632 | 32752 ft | 491 kts | 223° |
| 2026-05-07 10:01 | 41.83236 | -8.63444 | 32854 ft | 489 kts | 223° |
| 2026-05-07 10:02 | 41.80585 | -8.66194 | 32897 ft | 488 kts | 222° |
| 2026-05-07 10:02 | 41.75204 | -8.71745 | 32906 ft | 487 kts | 223° |
| 2026-05-07 10:03 | 41.69818 | -8.77281 | 32913 ft | 487 kts | 223° |
| 2026-05-07 10:03 | 41.64444 | -8.82796 | 32923 ft | 487 kts | 223° |
| 2026-05-07 10:04 | 41.59070 | -8.88301 | 32916 ft | 486 kts | 223° |
| 2026-05-07 10:04 | 41.53699 | -8.93795 | 32920 ft | 486 kts | 223° |
| 2026-05-07 10:05 | 41.48360 | -8.99239 | 32923 ft | 486 kts | 223° |
| 2026-05-07 10:05 | 41.42988 | -9.04706 | 32927 ft | 485 kts | 223° |
| 2026-05-07 10:06 | 41.37626 | -9.10153 | 32929 ft | 484 kts | 223° |
| 2026-05-07 10:06 | 41.32271 | -9.15580 | 32928 ft | 483 kts | 223° |
| 2026-05-07 10:07 | 41.26923 | -9.20990 | 32930 ft | 482 kts | 224° |
| 2026-05-07 10:07 | 41.21589 | -9.26374 | 32931 ft | 481 kts | 224° |
| 2026-05-07 10:08 | 41.16260 | -9.31742 | 32930 ft | 480 kts | 224° |
| 2026-05-07 10:08 | 41.10943 | -9.37086 | 32930 ft | 479 kts | 223° |
| 2026-05-07 10:09 | 41.05629 | -9.42416 | 32932 ft | 478 kts | 224° |
| 2026-05-07 10:09 | 41.01223 | -9.46828 | 32933 ft | 477 kts | 223° |
| 2026-05-07 10:10 | 40.95073 | -9.52971 | 32937 ft | 476 kts | 223° |
| 2026-05-07 10:10 | 40.89782 | -9.58246 | 32933 ft | 475 kts | 223° |
| 2026-05-07 10:11 | 40.85388 | -9.62619 | 32929 ft | 475 kts | 223° |
| 2026-05-07 10:11 | 40.80110 | -9.67860 | 32942 ft | 474 kts | 223° |
| 2026-05-07 10:12 | 40.74843 | -9.73080 | 32948 ft | 473 kts | 223° |
| 2026-05-07 10:12 | 40.69561 | -9.78305 | 32945 ft | 473 kts | 223° |
| 2026-05-07 10:13 | 40.64291 | -9.83507 | 32946 ft | 473 kts | 223° |
| 2026-05-07 10:13 | 40.59060 | -9.88660 | 32945 ft | 472 kts | 223° |
| 2026-05-07 10:14 | 40.53797 | -9.93834 | 32948 ft | 471 kts | 223° |
| 2026-05-07 10:14 | 40.48543 | -9.98989 | 32949 ft | 471 kts | 223° |
| 2026-05-07 10:15 | 40.43292 | -10.04130 | 32949 ft | 470 kts | 223° |
| 2026-05-07 10:15 | 40.38049 | -10.09254 | 32951 ft | 469 kts | 223° |
| 2026-05-07 10:16 | 40.32814 | -10.14360 | 32951 ft | 469 kts | 222° |
| 2026-05-07 10:16 | 40.27577 | -10.19458 | 32951 ft | 469 kts | 222° |
| 2026-05-07 10:17 | 40.22369 | -10.24517 | 32957 ft | 468 kts | 222° |
| 2026-05-07 10:17 | 40.17135 | -10.29593 | 32956 ft | 468 kts | 222° |
| 2026-05-07 10:18 | 40.11903 | -10.34655 | 32960 ft | 467 kts | 222° |
| 2026-05-07 10:18 | 40.06680 | -10.39699 | 32961 ft | 467 kts | 222° |
| 2026-05-07 10:19 | 40.01458 | -10.44733 | 32959 ft | 466 kts | 221° |
| 2026-05-07 10:19 | 39.96232 | -10.49760 | 32959 ft | 466 kts | 221° |
| 2026-05-07 10:20 | 39.91013 | -10.54771 | 32960 ft | 466 kts | 221° |
| 2026-05-07 10:20 | 39.85797 | -10.59769 | 32960 ft | 465 kts | 221° |
| 2026-05-07 10:21 | 39.80590 | -10.64749 | 32963 ft | 465 kts | 221° |
| 2026-05-07 10:21 | 39.75378 | -10.69725 | 32961 ft | 465 kts | 221° |
| 2026-05-07 10:22 | 39.70162 | -10.74695 | 32965 ft | 464 kts | 221° |
| 2026-05-07 10:22 | 39.64983 | -10.79620 | 32965 ft | 464 kts | 221° |
| 2026-05-07 10:23 | 39.59770 | -10.84567 | 32962 ft | 464 kts | 221° |
| 2026-05-07 10:23 | 39.54562 | -10.89501 | 32977 ft | 464 kts | 221° |
| 2026-05-07 10:24 | 39.49346 | -10.94433 | 32967 ft | 464 kts | 221° |
| 2026-05-07 10:24 | 39.44121 | -10.99364 | 32954 ft | 464 kts | 221° |
| 2026-05-07 10:25 | 39.38906 | -11.04276 | 32970 ft | 464 kts | 221° |
| 2026-05-07 10:25 | 39.33713 | -11.09159 | 32970 ft | 464 kts | 221° |
| 2026-05-07 10:26 | 39.28484 | -11.14066 | 32970 ft | 464 kts | 221° |
| 2026-05-07 10:26 | 39.23262 | -11.18957 | 32971 ft | 464 kts | 221° |
| 2026-05-07 10:27 | 39.18037 | -11.23842 | 32972 ft | 464 kts | 221° |
| 2026-05-07 10:27 | 39.12808 | -11.28721 | 32971 ft | 464 kts | 221° |
| 2026-05-07 10:28 | 39.07571 | -11.33599 | 32975 ft | 464 kts | 220° |
| 2026-05-07 10:28 | 39.02361 | -11.38442 | 32975 ft | 464 kts | 220° |
| 2026-05-07 10:29 | 38.97128 | -11.43297 | 32977 ft | 464 kts | 220° |
| 2026-05-07 10:29 | 38.91898 | -11.48141 | 32976 ft | 464 kts | 220° |
| 2026-05-07 10:30 | 38.84041 | -11.55401 | 32981 ft | 464 kts | 220° |
| 2026-05-07 10:30 | 38.78804 | -11.60229 | 32976 ft | 463 kts | 220° |
| 2026-05-07 10:31 | 38.73598 | -11.65020 | 32980 ft | 463 kts | 220° |
| 2026-05-07 10:31 | 38.68355 | -11.69835 | 32980 ft | 463 kts | 220° |
| 2026-05-07 10:32 | 38.63110 | -11.74644 | 32982 ft | 463 kts | 220° |
| 2026-05-07 10:32 | 38.57856 | -11.79453 | 32985 ft | 463 kts | 220° |
| 2026-05-07 10:33 | 38.52644 | -11.84213 | 32988 ft | 463 kts | 220° |
| 2026-05-07 10:33 | 38.47406 | -11.88989 | 32987 ft | 463 kts | 220° |
| 2026-05-07 10:34 | 38.42164 | -11.93760 | 32988 ft | 463 kts | 220° |
| 2026-05-07 10:34 | 38.36920 | -11.98524 | 32985 ft | 463 kts | 220° |
| 2026-05-07 10:35 | 38.31677 | -12.03278 | 32989 ft | 463 kts | 220° |
| 2026-05-07 10:35 | 38.26423 | -12.08034 | 32988 ft | 463 kts | 219° |
| 2026-05-07 10:36 | 38.21155 | -12.12795 | 32991 ft | 463 kts | 219° |
| 2026-05-07 10:36 | 38.15901 | -12.17533 | 32992 ft | 463 kts | 219° |
| 2026-05-07 10:37 | 38.10674 | -12.22239 | 32996 ft | 463 kts | 219° |
| 2026-05-07 10:37 | 38.05405 | -12.26974 | 32993 ft | 463 kts | 219° |
| 2026-05-07 10:38 | 38.00135 | -12.31701 | 32991 ft | 463 kts | 219° |
| 2026-05-07 10:38 | 37.94874 | -12.36411 | 32989 ft | 462 kts | 219° |
| 2026-05-07 10:39 | 37.89625 | -12.41104 | 32994 ft | 462 kts | 219° |
| 2026-05-07 10:39 | 37.84361 | -12.45801 | 32993 ft | 462 kts | 219° |
| 2026-05-07 10:40 | 37.79135 | -12.50455 | 32995 ft | 462 kts | 219° |
| 2026-05-07 10:40 | 37.73859 | -12.55146 | 32998 ft | 462 kts | 219° |
| 2026-05-07 10:41 | 37.68591 | -12.59822 | 32996 ft | 463 kts | 219° |
| 2026-05-07 10:41 | 37.63322 | -12.64491 | 33003 ft | 463 kts | 219° |
| 2026-05-07 10:42 | 37.58047 | -12.69156 | 33001 ft | 463 kts | 219° |
| 2026-05-07 10:42 | 37.52764 | -12.73819 | 33000 ft | 463 kts | 219° |
| 2026-05-07 10:43 | 37.47513 | -12.78447 | 33001 ft | 463 kts | 218° |
| 2026-05-07 10:43 | 37.42213 | -12.83109 | 33003 ft | 463 kts | 218° |
| 2026-05-07 10:44 | 37.36920 | -12.87758 | 33005 ft | 463 kts | 218° |
| 2026-05-07 10:44 | 37.31630 | -12.92395 | 33006 ft | 464 kts | 218° |
| 2026-05-07 10:45 | 37.26378 | -12.96991 | 33004 ft | 464 kts | 218° |
| 2026-05-07 10:45 | 37.21077 | -13.01622 | 33004 ft | 464 kts | 218° |
| 2026-05-07 10:46 | 37.15769 | -13.06252 | 33005 ft | 464 kts | 218° |
| 2026-05-07 10:46 | 37.10465 | -13.10868 | 33018 ft | 464 kts | 218° |
| 2026-05-07 10:47 | 37.05141 | -13.15496 | 33016 ft | 465 kts | 218° |
| 2026-05-07 10:47 | 36.99831 | -13.20102 | 33016 ft | 465 kts | 218° |
| 2026-05-07 10:48 | 36.94510 | -13.24710 | 32998 ft | 465 kts | 218° |
| 2026-05-07 10:48 | 36.89190 | -13.29310 | 33014 ft | 465 kts | 218° |
| 2026-05-07 10:49 | 36.83864 | -13.33906 | 33012 ft | 465 kts | 218° |
| 2026-05-07 10:49 | 36.78562 | -13.38474 | 33011 ft | 465 kts | 218° |
| 2026-05-07 10:50 | 36.73227 | -13.43063 | 33017 ft | 466 kts | 218° |
| 2026-05-07 10:50 | 36.67873 | -13.47660 | 33015 ft | 467 kts | 218° |
| 2026-05-07 10:51 | 36.62521 | -13.52247 | 33016 ft | 467 kts | 218° |
| 2026-05-07 10:51 | 36.57158 | -13.56836 | 33011 ft | 467 kts | 218° |
| 2026-05-07 10:52 | 36.51797 | -13.61415 | 33013 ft | 467 kts | 218° |
| 2026-05-07 10:52 | 36.46424 | -13.65997 | 33015 ft | 468 kts | 218° |
| 2026-05-07 10:53 | 36.41090 | -13.70538 | 33014 ft | 469 kts | 218° |
| 2026-05-07 10:53 | 36.35702 | -13.75117 | 33012 ft | 469 kts | 218° |
| 2026-05-07 10:54 | 36.30312 | -13.79690 | 33014 ft | 470 kts | 218° |
| 2026-05-07 10:54 | 36.24908 | -13.84266 | 33017 ft | 470 kts | 218° |
| 2026-05-07 10:55 | 36.20416 | -13.88065 | 33020 ft | 471 kts | 218° |
| 2026-05-07 10:55 | 36.14108 | -13.93390 | 33022 ft | 471 kts | 217° |
| 2026-05-07 10:56 | 36.09567 | -13.97216 | 33020 ft | 472 kts | 217° |
| 2026-05-07 10:56 | 36.04126 | -14.01795 | 33022 ft | 473 kts | 217° |
| 2026-05-07 10:57 | 35.98680 | -14.06370 | 33016 ft | 474 kts | 217° |
| 2026-05-07 10:57 | 35.93220 | -14.10948 | 33018 ft | 475 kts | 217° |
| 2026-05-07 10:58 | 35.87752 | -14.15525 | 33022 ft | 475 kts | 217° |
| 2026-05-07 10:58 | 35.82314 | -14.20070 | 33019 ft | 476 kts | 217° |
| 2026-05-07 10:59 | 35.76822 | -14.24652 | 33022 ft | 477 kts | 217° |
| 2026-05-07 10:59 | 35.71324 | -14.29231 | 33022 ft | 478 kts | 217° |
| 2026-05-07 11:00 | 35.65811 | -14.33815 | 33021 ft | 478 kts | 217° |
| 2026-05-07 11:00 | 35.60279 | -14.38407 | 33038 ft | 479 kts | 217° |
| 2026-05-07 11:01 | 35.54783 | -14.42961 | 33038 ft | 480 kts | 218° |
| 2026-05-07 11:01 | 35.49219 | -14.47565 | 33039 ft | 482 kts | 218° |
| 2026-05-07 11:02 | 35.43656 | -14.52158 | 33031 ft | 483 kts | 217° |
| 2026-05-07 11:02 | 35.38066 | -14.56768 | 33033 ft | 484 kts | 217° |
| 2026-05-07 11:03 | 35.32575 | -14.61279 | 33283 ft | 452 kts | 218° |
| 2026-05-07 11:03 | 35.30005 | -14.63380 | 33132 ft | 437 kts | 218° |
| 2026-05-07 11:03 | 35.27548 | -14.65393 | 33070 ft | 426 kts | 218° |
| 2026-05-07 11:04 | 35.22637 | -14.69431 | 33041 ft | 428 kts | 218° |
| 2026-05-07 11:04 | 35.17662 | -14.73521 | 33038 ft | 432 kts | 218° |
| 2026-05-07 11:05 | 35.12663 | -14.77614 | 33036 ft | 432 kts | 218° |
| 2026-05-07 11:05 | 35.07685 | -14.81680 | 33039 ft | 432 kts | 218° |
| 2026-05-07 11:06 | 35.02682 | -14.85759 | 33040 ft | 432 kts | 218° |
| 2026-05-07 11:06 | 34.97684 | -14.89830 | 33041 ft | 433 kts | 218° |
| 2026-05-07 11:07 | 34.92665 | -14.93911 | 33045 ft | 433 kts | 218° |
| 2026-05-07 11:07 | 34.87657 | -14.97977 | 33042 ft | 433 kts | 218° |
| 2026-05-07 11:08 | 34.82638 | -15.02046 | 33041 ft | 433 kts | 218° |
| 2026-05-07 11:08 | 34.77619 | -15.06110 | 33046 ft | 433 kts | 218° |
| 2026-05-07 11:09 | 34.72601 | -15.10166 | 33045 ft | 433 kts | 218° |
| 2026-05-07 11:09 | 34.67575 | -15.14223 | 33044 ft | 433 kts | 217° |
| 2026-05-07 11:10 | 34.62553 | -15.18270 | 33044 ft | 433 kts | 217° |
| 2026-05-07 11:10 | 34.57523 | -15.22318 | 33043 ft | 433 kts | 217° |
| 2026-05-07 11:11 | 34.52520 | -15.26339 | 33040 ft | 434 kts | 217° |
| 2026-05-07 11:11 | 34.47481 | -15.30382 | 33058 ft | 434 kts | 217° |
| 2026-05-07 11:12 | 34.42445 | -15.34417 | 33061 ft | 434 kts | 217° |
| 2026-05-07 11:12 | 34.37442 | -15.38420 | 33053 ft | 434 kts | 217° |
| 2026-05-07 11:13 | 34.32388 | -15.42458 | 33053 ft | 435 kts | 217° |
| 2026-05-07 11:13 | 34.27337 | -15.46487 | 33053 ft | 435 kts | 217° |
| 2026-05-07 11:14 | 34.22287 | -15.50509 | 33050 ft | 435 kts | 217° |
| 2026-05-07 11:14 | 34.17232 | -15.54530 | 33051 ft | 435 kts | 217° |
| 2026-05-07 11:15 | 34.12168 | -15.58552 | 33054 ft | 435 kts | 217° |
| 2026-05-07 11:15 | 34.07132 | -15.62546 | 33053 ft | 436 kts | 217° |
| 2026-05-07 11:16 | 34.02063 | -15.66560 | 33052 ft | 436 kts | 217° |
| 2026-05-07 11:16 | 33.96989 | -15.70573 | 33056 ft | 436 kts | 217° |
| 2026-05-07 11:17 | 33.91905 | -15.74587 | 33055 ft | 436 kts | 217° |
| 2026-05-07 11:17 | 33.86826 | -15.78593 | 33057 ft | 436 kts | 217° |
| 2026-05-07 11:18 | 33.81775 | -15.82569 | 33053 ft | 437 kts | 217° |
| 2026-05-07 11:18 | 33.76693 | -15.86565 | 33062 ft | 437 kts | 217° |
| 2026-05-07 11:19 | 33.71608 | -15.90557 | 33061 ft | 437 kts | 217° |
| 2026-05-07 11:19 | 33.66520 | -15.94546 | 33062 ft | 437 kts | 217° |
| 2026-05-07 11:20 | 33.61425 | -15.98534 | 33058 ft | 437 kts | 217° |
| 2026-05-07 11:20 | 33.56321 | -16.02524 | 33058 ft | 437 kts | 217° |
| 2026-05-07 11:21 | 33.51220 | -16.06506 | 33059 ft | 437 kts | 217° |
| 2026-05-07 11:21 | 33.46119 | -16.10483 | 33059 ft | 437 kts | 217° |
| 2026-05-07 11:22 | 33.41023 | -16.14449 | 33061 ft | 437 kts | 217° |
| 2026-05-07 11:22 | 33.35910 | -16.18423 | 33062 ft | 437 kts | 217° |
| 2026-05-07 11:23 | 33.30837 | -16.22361 | 33064 ft | 437 kts | 217° |
| 2026-05-07 11:23 | 33.25724 | -16.26324 | 33080 ft | 438 kts | 217° |
| 2026-05-07 11:24 | 33.20593 | -16.30296 | 33083 ft | 438 kts | 217° |
| 2026-05-07 11:24 | 33.15512 | -16.34223 | 33082 ft | 438 kts | 217° |
| 2026-05-07 11:25 | 33.10395 | -16.38172 | 33074 ft | 438 kts | 217° |
| 2026-05-07 11:25 | 33.05269 | -16.42122 | 33081 ft | 438 kts | 217° |
| 2026-05-07 11:26 | 33.00144 | -16.46067 | 33074 ft | 438 kts | 217° |
| 2026-05-07 11:26 | 32.95013 | -16.50010 | 33072 ft | 438 kts | 217° |
| 2026-05-07 11:27 | 32.89889 | -16.53943 | 33072 ft | 439 kts | 217° |
| 2026-05-07 11:27 | 32.84788 | -16.57853 | 33069 ft | 439 kts | 217° |
| 2026-05-07 11:28 | 32.79652 | -16.61783 | 33069 ft | 439 kts | 217° |
| 2026-05-07 11:28 | 32.74511 | -16.65713 | 33071 ft | 439 kts | 217° |
| 2026-05-07 11:29 | 32.69365 | -16.69640 | 33076 ft | 440 kts | 217° |
| 2026-05-07 11:29 | 32.64201 | -16.73575 | 33071 ft | 440 kts | 217° |
| 2026-05-07 11:30 | 32.59053 | -16.77494 | 33073 ft | 440 kts | 217° |
| 2026-05-07 11:30 | 32.53919 | -16.81396 | 33075 ft | 440 kts | 217° |
| 2026-05-07 11:31 | 32.48757 | -16.85314 | 33073 ft | 441 kts | 217° |
| 2026-05-07 11:31 | 32.43580 | -16.89238 | 33076 ft | 441 kts | 217° |
| 2026-05-07 11:32 | 32.35820 | -16.95109 | 33075 ft | 441 kts | 217° |
| 2026-05-07 11:33 | 32.30663 | -16.99005 | 33076 ft | 442 kts | 217° |
| 2026-05-07 11:33 | 32.25488 | -17.02909 | 33076 ft | 442 kts | 217° |
| 2026-05-07 11:34 | 32.20303 | -17.06814 | 33078 ft | 442 kts | 217° |
| 2026-05-07 11:34 | 32.15117 | -17.10715 | 33079 ft | 442 kts | 217° |
| 2026-05-07 11:35 | 32.09923 | -17.14617 | 33077 ft | 442 kts | 217° |
| 2026-05-07 11:35 | 32.04720 | -17.18520 | 33079 ft | 442 kts | 217° |
| 2026-05-07 11:36 | 31.99520 | -17.22416 | 33080 ft | 443 kts | 217° |
| 2026-05-07 11:36 | 31.94358 | -17.26278 | 33081 ft | 443 kts | 218° |
| 2026-05-07 11:37 | 31.89155 | -17.30166 | 33078 ft | 443 kts | 218° |
| 2026-05-07 11:37 | 31.83945 | -17.34053 | 33087 ft | 443 kts | 218° |
| 2026-05-07 11:38 | 31.78727 | -17.37942 | 33084 ft | 443 kts | 218° |
| 2026-05-07 11:38 | 31.73540 | -17.41803 | 33086 ft | 443 kts | 218° |
| 2026-05-07 11:39 | 31.68330 | -17.45676 | 33088 ft | 443 kts | 218° |
| 2026-05-07 11:39 | 31.63157 | -17.49622 | 33083 ft | 443 kts | 219° |
| 2026-05-07 11:40 | 31.58010 | -17.53622 | 33083 ft | 443 kts | 219° |
| 2026-05-07 11:40 | 31.52855 | -17.57619 | 33088 ft | 443 kts | 219° |
| 2026-05-07 11:41 | 31.47730 | -17.61575 | 33089 ft | 444 kts | 219° |
| 2026-05-07 11:41 | 31.42571 | -17.65546 | 33087 ft | 444 kts | 219° |
| 2026-05-07 11:42 | 31.37407 | -17.69514 | 33088 ft | 444 kts | 219° |
| 2026-05-07 11:42 | 31.32232 | -17.73485 | 33084 ft | 444 kts | 219° |
| 2026-05-07 11:43 | 31.27060 | -17.77449 | 33104 ft | 445 kts | 219° |
| 2026-05-07 11:43 | 31.21887 | -17.81409 | 33097 ft | 445 kts | 219° |
| 2026-05-07 11:44 | 31.17583 | -17.84699 | 33093 ft | 445 kts | 219° |
| 2026-05-07 11:44 | 31.12401 | -17.88656 | 33088 ft | 445 kts | 219° |
| 2026-05-07 11:45 | 31.06371 | -17.93254 | 33088 ft | 446 kts | 219° |
| 2026-05-07 11:45 | 31.02015 | -17.96571 | 33086 ft | 446 kts | 219° |
| 2026-05-07 11:46 | 30.96842 | -18.00506 | 33088 ft | 446 kts | 219° |
| 2026-05-07 11:46 | 30.91635 | -18.04461 | 33092 ft | 446 kts | 219° |
| 2026-05-07 11:47 | 30.86464 | -18.08383 | 33087 ft | 446 kts | 219° |
| 2026-05-07 11:47 | 30.81244 | -18.12337 | 33091 ft | 447 kts | 219° |
| 2026-05-07 11:48 | 30.76029 | -18.16283 | 33095 ft | 447 kts | 219° |
| 2026-05-07 11:48 | 30.70808 | -18.20228 | 33096 ft | 447 kts | 219° |
| 2026-05-07 11:49 | 30.65609 | -18.24151 | 33095 ft | 448 kts | 219° |
| 2026-05-07 11:49 | 30.60389 | -18.28085 | 33093 ft | 448 kts | 219° |
| 2026-05-07 11:50 | 30.55151 | -18.32028 | 33097 ft | 448 kts | 219° |
| 2026-05-07 11:50 | 30.49909 | -18.35968 | 33096 ft | 449 kts | 219° |
| 2026-05-07 11:51 | 30.44666 | -18.39904 | 33097 ft | 449 kts | 219° |
| 2026-05-07 11:51 | 30.39415 | -18.43840 | 33086 ft | 449 kts | 219° |
| 2026-05-07 11:52 | 30.34192 | -18.47750 | 33098 ft | 450 kts | 220° |
| 2026-05-07 11:52 | 30.28929 | -18.51686 | 33103 ft | 450 kts | 220° |
| 2026-05-07 11:53 | 30.23659 | -18.55621 | 33095 ft | 451 kts | 220° |
| 2026-05-07 11:53 | 30.18382 | -18.59557 | 33094 ft | 451 kts | 220° |
| 2026-05-07 11:54 | 30.13105 | -18.63488 | 33092 ft | 451 kts | 220° |
| 2026-05-07 11:54 | 30.07856 | -18.67393 | 33094 ft | 452 kts | 220° |
| 2026-05-07 11:55 | 30.02551 | -18.71334 | 33095 ft | 453 kts | 220° |
| 2026-05-07 11:55 | 29.97251 | -18.75266 | 33092 ft | 453 kts | 220° |
| 2026-05-07 11:56 | 29.91944 | -18.79199 | 33100 ft | 454 kts | 220° |
| 2026-05-07 11:56 | 29.86625 | -18.83135 | 33093 ft | 454 kts | 220° |
| 2026-05-07 11:57 | 29.81335 | -18.87045 | 33094 ft | 454 kts | 220° |
| 2026-05-07 11:57 | 29.76008 | -18.90977 | 33094 ft | 455 kts | 220° |
| 2026-05-07 11:58 | 29.70671 | -18.94912 | 33095 ft | 455 kts | 220° |
| 2026-05-07 11:58 | 29.65333 | -18.98842 | 33095 ft | 456 kts | 220° |
| 2026-05-07 11:59 | 29.59982 | -19.02777 | 33096 ft | 456 kts | 220° |
| 2026-05-07 11:59 | 29.54660 | -19.06685 | 33096 ft | 457 kts | 220° |
| 2026-05-07 12:00 | 29.49281 | -19.10631 | 33090 ft | 458 kts | 220° |
| 2026-05-07 12:00 | 29.43912 | -19.14564 | 33091 ft | 458 kts | 220° |
| 2026-05-07 12:01 | 29.38564 | -19.18477 | 33083 ft | 459 kts | 220° |
| 2026-05-07 12:01 | 29.33173 | -19.22416 | 33084 ft | 459 kts | 219° |
| 2026-05-07 12:02 | 29.27777 | -19.26353 | 33096 ft | 460 kts | 219° |
| 2026-05-07 12:02 | 29.22375 | -19.30291 | 33098 ft | 461 kts | 219° |
| 2026-05-07 12:03 | 29.16952 | -19.34238 | 33097 ft | 461 kts | 219° |
| 2026-05-07 12:03 | 29.11535 | -19.38175 | 33092 ft | 461 kts | 219° |
| 2026-05-07 12:04 | 29.06143 | -19.42090 | 33089 ft | 462 kts | 219° |
| 2026-05-07 12:04 | 29.00721 | -19.46022 | 33086 ft | 462 kts | 219° |
| 2026-05-07 12:05 | 28.95290 | -19.49956 | 33088 ft | 463 kts | 219° |
| 2026-05-07 12:05 | 28.89840 | -19.53898 | 33086 ft | 463 kts | 219° |
| 2026-05-07 12:06 | 28.84392 | -19.57833 | 33086 ft | 464 kts | 219° |
| 2026-05-07 12:06 | 28.78931 | -19.61773 | 33087 ft | 464 kts | 219° |
| 2026-05-07 12:07 | 28.73474 | -19.65705 | 33087 ft | 464 kts | 219° |
| 2026-05-07 12:07 | 28.68042 | -19.69615 | 33084 ft | 464 kts | 219° |
| 2026-05-07 12:08 | 28.62575 | -19.73545 | 33088 ft | 465 kts | 219° |
| 2026-05-07 12:08 | 28.57101 | -19.77476 | 33088 ft | 465 kts | 219° |
| 2026-05-07 12:09 | 28.51653 | -19.81381 | 33088 ft | 465 kts | 219° |
| 2026-05-07 12:09 | 28.46163 | -19.85313 | 33086 ft | 466 kts | 219° |
| 2026-05-07 12:10 | 28.40677 | -19.89237 | 33085 ft | 466 kts | 219° |
| 2026-05-07 12:10 | 28.35177 | -19.93167 | 33087 ft | 466 kts | 219° |
| 2026-05-07 12:11 | 28.29677 | -19.97093 | 33085 ft | 467 kts | 219° |
| 2026-05-07 12:11 | 28.24176 | -20.01012 | 33075 ft | 467 kts | 219° |
| 2026-05-07 12:12 | 28.18688 | -20.04914 | 33092 ft | 467 kts | 219° |
| 2026-05-07 12:12 | 28.13175 | -20.08829 | 33086 ft | 467 kts | 219° |
| 2026-05-07 12:13 | 28.07655 | -20.12746 | 33083 ft | 468 kts | 219° |
| 2026-05-07 12:13 | 28.02169 | -20.16635 | 33079 ft | 468 kts | 219° |
| 2026-05-07 12:14 | 27.96646 | -20.20545 | 33077 ft | 468 kts | 218° |
| 2026-05-07 12:14 | 27.91120 | -20.24453 | 33081 ft | 469 kts | 218° |
| 2026-05-07 12:15 | 27.85581 | -20.28365 | 33075 ft | 469 kts | 218° |
| 2026-05-07 12:15 | 27.80048 | -20.32268 | 33076 ft | 469 kts | 218° |
| 2026-05-07 12:16 | 27.74496 | -20.36180 | 33079 ft | 470 kts | 218° |
| 2026-05-07 12:16 | 27.68948 | -20.40084 | 33068 ft | 469 kts | 218° |
| 2026-05-07 12:17 | 27.63402 | -20.43982 | 33081 ft | 470 kts | 218° |
| 2026-05-07 12:17 | 27.57881 | -20.47858 | 33070 ft | 470 kts | 218° |
| 2026-05-07 12:18 | 27.52309 | -20.51764 | 33075 ft | 471 kts | 218° |
| 2026-05-07 12:18 | 27.46747 | -20.55659 | 33075 ft | 471 kts | 218° |
| 2026-05-07 12:19 | 27.41176 | -20.59556 | 33074 ft | 471 kts | 218° |
| 2026-05-07 12:19 | 27.35606 | -20.63447 | 33075 ft | 472 kts | 218° |
| 2026-05-07 12:20 | 27.30025 | -20.67341 | 33074 ft | 472 kts | 217° |
| 2026-05-07 12:20 | 27.24474 | -20.71210 | 33075 ft | 472 kts | 217° |
| 2026-05-07 12:21 | 27.18879 | -20.75104 | 33075 ft | 472 kts | 217° |
| 2026-05-07 12:21 | 27.13277 | -20.78999 | 33071 ft | 473 kts | 217° |
| 2026-05-07 12:22 | 27.07710 | -20.82865 | 33072 ft | 473 kts | 217° |
| 2026-05-07 12:22 | 27.02115 | -20.86746 | 33073 ft | 473 kts | 217° |
| 2026-05-07 12:23 | 26.96518 | -20.90624 | 33071 ft | 473 kts | 217° |
| 2026-05-07 12:23 | 26.90917 | -20.94500 | 33071 ft | 473 kts | 217° |
| 2026-05-07 12:24 | 26.85310 | -20.98374 | 33067 ft | 473 kts | 217° |
| 2026-05-07 12:24 | 26.79700 | -21.02247 | 33069 ft | 473 kts | 217° |
| 2026-05-07 12:25 | 26.74076 | -21.06125 | 33072 ft | 474 kts | 217° |
| 2026-05-07 12:25 | 26.68500 | -21.09966 | 33084 ft | 474 kts | 216° |
| 2026-05-07 12:26 | 26.62889 | -21.13826 | 33079 ft | 473 kts | 216° |
| 2026-05-07 12:26 | 26.57255 | -21.17697 | 33059 ft | 473 kts | 216° |
| 2026-05-07 12:27 | 26.51647 | -21.21546 | 33072 ft | 473 kts | 216° |
| 2026-05-07 12:27 | 26.46025 | -21.25400 | 33071 ft | 473 kts | 216° |
| 2026-05-07 12:28 | 26.40401 | -21.29251 | 33073 ft | 474 kts | 216° |
| 2026-05-07 12:28 | 26.34819 | -21.33069 | 33071 ft | 474 kts | 216° |
| 2026-05-07 12:29 | 26.29196 | -21.36910 | 33072 ft | 473 kts | 216° |
| 2026-05-07 12:29 | 26.23570 | -21.40749 | 33071 ft | 474 kts | 216° |
| 2026-05-07 12:30 | 26.17951 | -21.44579 | 33073 ft | 474 kts | 216° |
| 2026-05-07 12:30 | 26.12321 | -21.48412 | 33069 ft | 474 kts | 216° |
| 2026-05-07 12:31 | 26.06735 | -21.52211 | 33069 ft | 474 kts | 216° |
| 2026-05-07 12:31 | 26.01114 | -21.56029 | 33072 ft | 474 kts | 216° |
| 2026-05-07 12:32 | 25.95487 | -21.59846 | 33071 ft | 474 kts | 216° |
| 2026-05-07 12:32 | 25.89858 | -21.63662 | 33076 ft | 474 kts | 216° |
| 2026-05-07 12:33 | 25.81407 | -21.69381 | 33070 ft | 474 kts | 216° |
| 2026-05-07 12:33 | 25.75770 | -21.73190 | 33067 ft | 474 kts | 215° |
| 2026-05-07 12:34 | 25.70161 | -21.76977 | 33070 ft | 475 kts | 215° |
| 2026-05-07 12:34 | 25.65463 | -21.80145 | 33075 ft | 475 kts | 215° |
| 2026-05-07 12:35 | 25.59817 | -21.83949 | 33073 ft | 475 kts | 215° |
| 2026-05-07 12:35 | 25.54159 | -21.87756 | 33073 ft | 475 kts | 215° |
| 2026-05-07 12:36 | 25.48499 | -21.91560 | 33073 ft | 476 kts | 215° |
| 2026-05-07 12:36 | 25.42836 | -21.95362 | 33069 ft | 476 kts | 215° |
| 2026-05-07 12:37 | 25.37181 | -21.99155 | 33066 ft | 476 kts | 215° |
| 2026-05-07 12:37 | 25.31507 | -22.02956 | 33065 ft | 476 kts | 215° |
| 2026-05-07 12:38 | 25.25833 | -22.06753 | 33081 ft | 476 kts | 215° |
| 2026-05-07 12:38 | 25.20192 | -22.10524 | 33079 ft | 476 kts | 215° |
| 2026-05-07 12:39 | 25.14522 | -22.14309 | 33075 ft | 476 kts | 215° |
| 2026-05-07 12:39 | 25.08866 | -22.18082 | 33069 ft | 477 kts | 215° |
| 2026-05-07 12:40 | 25.03181 | -22.21870 | 33071 ft | 477 kts | 215° |
| 2026-05-07 12:40 | 24.97501 | -22.25650 | 33070 ft | 477 kts | 215° |
| 2026-05-07 12:41 | 24.91811 | -22.29433 | 33071 ft | 477 kts | 215° |
| 2026-05-07 12:41 | 24.86126 | -22.33209 | 33069 ft | 477 kts | 215° |
| 2026-05-07 12:42 | 24.80431 | -22.36987 | 33071 ft | 477 kts | 215° |
| 2026-05-07 12:42 | 24.74745 | -22.40755 | 33070 ft | 478 kts | 215° |
| 2026-05-07 12:43 | 24.69072 | -22.44511 | 33073 ft | 478 kts | 215° |
| 2026-05-07 12:43 | 24.63371 | -22.48282 | 33070 ft | 478 kts | 215° |
| 2026-05-07 12:44 | 24.57655 | -22.52056 | 33068 ft | 478 kts | 215° |
| 2026-05-07 12:44 | 24.51976 | -22.55801 | 33071 ft | 479 kts | 215° |
| 2026-05-07 12:45 | 24.46254 | -22.59574 | 33070 ft | 479 kts | 215° |
| 2026-05-07 12:45 | 24.40546 | -22.63333 | 33071 ft | 479 kts | 215° |
| 2026-05-07 12:46 | 24.34822 | -22.67099 | 33075 ft | 480 kts | 215° |
| 2026-05-07 12:46 | 24.29102 | -22.70858 | 33071 ft | 480 kts | 215° |
| 2026-05-07 12:47 | 24.23368 | -22.74623 | 33064 ft | 480 kts | 215° |
| 2026-05-07 12:47 | 24.17641 | -22.78378 | 33069 ft | 480 kts | 215° |
| 2026-05-07 12:48 | 24.11895 | -22.82143 | 33066 ft | 480 kts | 215° |
| 2026-05-07 12:48 | 24.06196 | -22.85872 | 33066 ft | 480 kts | 215° |
| 2026-05-07 12:49 | 24.00444 | -22.89633 | 33073 ft | 481 kts | 216° |
| 2026-05-07 12:49 | 23.94692 | -22.93389 | 33073 ft | 481 kts | 215° |
| 2026-05-07 12:50 | 23.88949 | -22.97136 | 33070 ft | 481 kts | 215° |
| 2026-05-07 12:50 | 23.83193 | -23.00887 | 33071 ft | 481 kts | 215° |
| 2026-05-07 12:51 | 23.77474 | -23.04610 | 33070 ft | 481 kts | 215° |
| 2026-05-07 12:51 | 23.71711 | -23.08357 | 33070 ft | 482 kts | 215° |
| 2026-05-07 12:52 | 23.65951 | -23.12100 | 33064 ft | 482 kts | 215° |
| 2026-05-07 12:52 | 23.60187 | -23.15840 | 33071 ft | 482 kts | 215° |
| 2026-05-07 12:53 | 23.54456 | -23.19556 | 33071 ft | 482 kts | 215° |
| 2026-05-07 12:53 | 23.48681 | -23.23296 | 33067 ft | 482 kts | 215° |
| 2026-05-07 12:54 | 23.42899 | -23.27037 | 33069 ft | 483 kts | 215° |
| 2026-05-07 12:54 | 23.37117 | -23.30774 | 33076 ft | 483 kts | 215° |
| 2026-05-07 12:55 | 23.31340 | -23.34503 | 33074 ft | 483 kts | 215° |
| 2026-05-07 12:55 | 23.25537 | -23.38247 | 33066 ft | 483 kts | 215° |
| 2026-05-07 12:56 | 23.19783 | -23.41954 | 33066 ft | 484 kts | 215° |
| 2026-05-07 12:56 | 23.13978 | -23.45691 | 33069 ft | 484 kts | 215° |
| 2026-05-07 12:57 | 23.08184 | -23.49417 | 33066 ft | 484 kts | 215° |
| 2026-05-07 12:57 | 23.02378 | -23.53147 | 33066 ft | 485 kts | 215° |
| 2026-05-07 12:58 | 22.96571 | -23.56875 | 33067 ft | 485 kts | 215° |
| 2026-05-07 12:58 | 22.90761 | -23.60600 | 33067 ft | 485 kts | 215° |
| 2026-05-07 12:59 | 22.84977 | -23.64302 | 33068 ft | 485 kts | 215° |
| 2026-05-07 12:59 | 22.79163 | -23.68022 | 33067 ft | 486 kts | 215° |
| 2026-05-07 13:00 | 22.73343 | -23.71742 | 33067 ft | 486 kts | 215° |
| 2026-05-07 13:00 | 22.67513 | -23.75466 | 33065 ft | 486 kts | 215° |
| 2026-05-07 13:01 | 22.61673 | -23.79193 | 33065 ft | 486 kts | 215° |
| 2026-05-07 13:01 | 22.55881 | -23.82884 | 33067 ft | 486 kts | 215° |
| 2026-05-07 13:02 | 22.50053 | -23.86596 | 33059 ft | 486 kts | 215° |
| 2026-05-07 13:02 | 22.44216 | -23.90310 | 33059 ft | 486 kts | 215° |
| 2026-05-07 13:03 | 22.38376 | -23.94022 | 33053 ft | 487 kts | 215° |
| 2026-05-07 13:03 | 22.32530 | -23.97733 | 33071 ft | 487 kts | 215° |
| 2026-05-07 13:04 | 22.26698 | -24.01433 | 33060 ft | 487 kts | 215° |
| 2026-05-07 13:04 | 22.20848 | -24.05140 | 33065 ft | 487 kts | 215° |
| 2026-05-07 13:05 | 22.15024 | -24.08827 | 33068 ft | 488 kts | 215° |
| 2026-05-07 13:05 | 22.09171 | -24.12529 | 33063 ft | 488 kts | 215° |
| 2026-05-07 13:06 | 22.03303 | -24.16236 | 33064 ft | 488 kts | 215° |
| 2026-05-07 13:06 | 21.97438 | -24.19939 | 33060 ft | 489 kts | 215° |
| 2026-05-07 13:07 | 21.91574 | -24.23636 | 33062 ft | 489 kts | 214° |
| 2026-05-07 13:07 | 21.85692 | -24.27342 | 33062 ft | 489 kts | 214° |
| 2026-05-07 13:08 | 21.79826 | -24.31034 | 33060 ft | 489 kts | 214° |
| 2026-05-07 13:08 | 21.73953 | -24.34727 | 33063 ft | 489 kts | 214° |
| 2026-05-07 13:09 | 21.68112 | -24.38396 | 33062 ft | 489 kts | 214° |
| 2026-05-07 13:09 | 21.62231 | -24.42088 | 33060 ft | 489 kts | 214° |
| 2026-05-07 13:10 | 21.56345 | -24.45778 | 33063 ft | 489 kts | 214° |
| 2026-05-07 13:10 | 21.50458 | -24.49465 | 33056 ft | 490 kts | 214° |
| 2026-05-07 13:11 | 21.44575 | -24.53147 | 33065 ft | 490 kts | 214° |
| 2026-05-07 13:11 | 21.38669 | -24.56840 | 33061 ft | 490 kts | 214° |
| 2026-05-07 13:12 | 21.32774 | -24.60522 | 33059 ft | 490 kts | 214° |
| 2026-05-07 13:12 | 21.26865 | -24.64210 | 33058 ft | 491 kts | 214° |
| 2026-05-07 13:13 | 21.21003 | -24.67865 | 33058 ft | 491 kts | 214° |
| 2026-05-07 13:13 | 21.15102 | -24.71540 | 33060 ft | 491 kts | 214° |
| 2026-05-07 13:14 | 21.09185 | -24.75222 | 33059 ft | 490 kts | 214° |
| 2026-05-07 13:14 | 21.03283 | -24.78892 | 33057 ft | 490 kts | 214° |
| 2026-05-07 13:15 | 20.97379 | -24.82559 | 33056 ft | 491 kts | 214° |
| 2026-05-07 13:15 | 20.91473 | -24.86224 | 33060 ft | 491 kts | 214° |
| 2026-05-07 13:16 | 20.85562 | -24.89889 | 33056 ft | 491 kts | 213° |
| 2026-05-07 13:16 | 20.79645 | -24.93554 | 33061 ft | 491 kts | 213° |
| 2026-05-07 13:17 | 20.76716 | -24.95368 | 33184 ft | 494 kts | 213° |
| 2026-05-07 13:17 | 20.73709 | -24.97229 | 33523 ft | 493 kts | 213° |
| 2026-05-07 13:17 | 20.70787 | -24.99035 | 33930 ft | 490 kts | 213° |
| 2026-05-07 13:17 | 20.67839 | -25.00856 | 34307 ft | 488 kts | 213° |
| 2026-05-07 13:18 | 20.64908 | -25.02666 | 34619 ft | 486 kts | 213° |
| 2026-05-07 13:18 | 20.61976 | -25.04477 | 34921 ft | 485 kts | 213° |
| 2026-05-07 13:18 | 20.56117 | -25.08095 | 35045 ft | 487 kts | 213° |
| 2026-05-07 13:19 | 20.50256 | -25.11709 | 35046 ft | 486 kts | 213° |
| 2026-05-07 13:19 | 20.44429 | -25.15299 | 35056 ft | 486 kts | 213° |
| 2026-05-07 13:20 | 20.38572 | -25.18905 | 35059 ft | 486 kts | 213° |
| 2026-05-07 13:20 | 20.32690 | -25.22522 | 35055 ft | 487 kts | 213° |
| 2026-05-07 13:21 | 20.26825 | -25.26126 | 35057 ft | 487 kts | 213° |
| 2026-05-07 13:21 | 20.20982 | -25.29713 | 35057 ft | 487 kts | 213° |
| 2026-05-07 13:22 | 20.15094 | -25.33325 | 35054 ft | 488 kts | 213° |
| 2026-05-07 13:22 | 20.09212 | -25.36930 | 35055 ft | 488 kts | 213° |
| 2026-05-07 13:23 | 20.03314 | -25.40541 | 35052 ft | 489 kts | 213° |
| 2026-05-07 13:23 | 19.98411 | -25.43541 | 35054 ft | 489 kts | 212° |
| 2026-05-07 13:24 | 19.92509 | -25.47149 | 35056 ft | 490 kts | 212° |
| 2026-05-07 13:24 | 19.86597 | -25.50760 | 35054 ft | 490 kts | 212° |
| 2026-05-07 13:25 | 19.80677 | -25.54373 | 35055 ft | 490 kts | 212° |
| 2026-05-07 13:25 | 19.74751 | -25.57986 | 35053 ft | 490 kts | 212° |
| 2026-05-07 13:26 | 19.68866 | -25.61572 | 35046 ft | 490 kts | 212° |
| 2026-05-07 13:26 | 19.62938 | -25.65180 | 35053 ft | 490 kts | 212° |
| 2026-05-07 13:27 | 19.57017 | -25.68781 | 35051 ft | 491 kts | 212° |
| 2026-05-07 13:27 | 19.51088 | -25.72383 | 35049 ft | 491 kts | 212° |
| 2026-05-07 13:28 | 19.45154 | -25.75987 | 35046 ft | 491 kts | 212° |
| 2026-05-07 13:28 | 19.39226 | -25.79583 | 35047 ft | 491 kts | 212° |
| 2026-05-07 13:29 | 19.33290 | -25.83181 | 35048 ft | 491 kts | 212° |
| 2026-05-07 13:29 | 19.27347 | -25.86780 | 35046 ft | 492 kts | 212° |
| 2026-05-07 13:30 | 19.21439 | -25.90355 | 35049 ft | 492 kts | 212° |
| 2026-05-07 13:30 | 19.15495 | -25.93948 | 35048 ft | 492 kts | 211° |
| 2026-05-07 13:31 | 19.09537 | -25.97548 | 35047 ft | 492 kts | 211° |
| 2026-05-07 13:31 | 19.03588 | -26.01140 | 35050 ft | 493 kts | 211° |
| 2026-05-07 13:32 | 18.97623 | -26.04738 | 35046 ft | 493 kts | 211° |
| 2026-05-07 13:32 | 18.91649 | -26.08330 | 35044 ft | 493 kts | 211° |
| 2026-05-07 13:33 | 18.85677 | -26.11895 | 35046 ft | 493 kts | 211° |
| 2026-05-07 13:33 | 18.79698 | -26.15460 | 35048 ft | 494 kts | 211° |
| 2026-05-07 13:34 | 18.70760 | -26.20791 | 35044 ft | 494 kts | 211° |
| 2026-05-07 13:35 | 18.64764 | -26.24365 | 35049 ft | 494 kts | 211° |
| 2026-05-07 13:35 | 18.58776 | -26.27932 | 35045 ft | 494 kts | 211° |
| 2026-05-07 13:36 | 18.52792 | -26.31493 | 35036 ft | 493 kts | 211° |
| 2026-05-07 13:36 | 18.46815 | -26.35047 | 35038 ft | 493 kts | 211° |
| 2026-05-07 13:37 | 18.40836 | -26.38600 | 35054 ft | 493 kts | 211° |
| 2026-05-07 13:37 | 18.34855 | -26.42150 | 35037 ft | 493 kts | 211° |
| 2026-05-07 13:38 | 18.28916 | -26.45673 | 35033 ft | 493 kts | 211° |
| 2026-05-07 13:38 | 18.22936 | -26.49218 | 35036 ft | 492 kts | 211° |
| 2026-05-07 13:39 | 18.16975 | -26.52748 | 35047 ft | 491 kts | 211° |
| 2026-05-07 13:39 | 18.11017 | -26.56273 | 35047 ft | 491 kts | 211° |
| 2026-05-07 13:40 | 18.05053 | -26.59800 | 35047 ft | 490 kts | 211° |
| 2026-05-07 13:40 | 17.99144 | -26.63291 | 35041 ft | 490 kts | 211° |
| 2026-05-07 13:41 | 17.93205 | -26.66798 | 35042 ft | 490 kts | 211° |
| 2026-05-07 13:41 | 17.87246 | -26.70313 | 35042 ft | 489 kts | 211° |
| 2026-05-07 13:42 | 17.81302 | -26.73817 | 35034 ft | 489 kts | 211° |
| 2026-05-07 13:42 | 17.75403 | -26.77291 | 35040 ft | 488 kts | 211° |
| 2026-05-07 13:43 | 17.69476 | -26.80779 | 35037 ft | 488 kts | 211° |
| 2026-05-07 13:43 | 17.63560 | -26.84259 | 35039 ft | 487 kts | 211° |
| 2026-05-07 13:44 | 17.57645 | -26.87735 | 35038 ft | 487 kts | 211° |
| 2026-05-07 13:44 | 17.51737 | -26.91204 | 35036 ft | 487 kts | 211° |
| 2026-05-07 13:45 | 17.45821 | -26.94676 | 35036 ft | 486 kts | 211° |
| 2026-05-07 13:45 | 17.39923 | -26.98134 | 35037 ft | 486 kts | 211° |
| 2026-05-07 13:46 | 17.34057 | -27.01571 | 35034 ft | 486 kts | 211° |
| 2026-05-07 13:46 | 17.28152 | -27.05028 | 35036 ft | 486 kts | 211° |
| 2026-05-07 13:47 | 17.22248 | -27.08483 | 35034 ft | 485 kts | 211° |
| 2026-05-07 13:47 | 17.16358 | -27.11925 | 35035 ft | 485 kts | 211° |
| 2026-05-07 13:48 | 17.10462 | -27.15370 | 35033 ft | 484 kts | 211° |
| 2026-05-07 13:48 | 17.04634 | -27.18772 | 35032 ft | 483 kts | 211° |
| 2026-05-07 13:49 | 16.98762 | -27.22197 | 35036 ft | 482 kts | 211° |
| 2026-05-07 13:49 | 16.92887 | -27.25622 | 35037 ft | 482 kts | 211° |
| 2026-05-07 13:50 | 16.87030 | -27.29033 | 35030 ft | 482 kts | 211° |
| 2026-05-07 13:50 | 16.81175 | -27.32441 | 35030 ft | 481 kts | 211° |
| 2026-05-07 13:51 | 16.75370 | -27.35818 | 35031 ft | 480 kts | 211° |
| 2026-05-07 13:51 | 16.69540 | -27.39207 | 35030 ft | 479 kts | 211° |
| 2026-05-07 13:52 | 16.63719 | -27.42588 | 35031 ft | 478 kts | 211° |
| 2026-05-07 13:52 | 16.57910 | -27.45959 | 35028 ft | 477 kts | 212° |
| 2026-05-07 13:53 | 16.52118 | -27.49318 | 35025 ft | 476 kts | 212° |
| 2026-05-07 13:53 | 16.46323 | -27.52677 | 35032 ft | 475 kts | 212° |
| 2026-05-07 13:54 | 16.40548 | -27.56023 | 35027 ft | 474 kts | 212° |
| 2026-05-07 13:54 | 16.34811 | -27.59343 | 35028 ft | 474 kts | 212° |
| 2026-05-07 13:55 | 16.29059 | -27.62670 | 35023 ft | 472 kts | 212° |
| 2026-05-07 13:55 | 16.23314 | -27.65991 | 35025 ft | 471 kts | 212° |
| 2026-05-07 13:56 | 16.17586 | -27.69300 | 35018 ft | 470 kts | 212° |
| 2026-05-07 13:56 | 16.11861 | -27.72605 | 35025 ft | 469 kts | 212° |
| 2026-05-07 13:57 | 16.06156 | -27.75896 | 35020 ft | 469 kts | 212° |
| 2026-05-07 13:57 | 16.00451 | -27.79185 | 35023 ft | 468 kts | 213° |
| 2026-05-07 13:58 | 15.94792 | -27.82446 | 35024 ft | 467 kts | 213° |
| 2026-05-07 13:58 | 15.89105 | -27.85720 | 35022 ft | 466 kts | 213° |